Time;durP1;ratioP1;P1;durP2;ratioP2;P2;SDS_P1;SDS_P2;PMS_P1;PMS_P2;Temp;Humidity;BMP_temperature;BMP_pressure;BME280_temperature;BME280_humidity;BME280_pressure;Samples;Min_cycle;Max_cycle;Signal;HPM_P1;HPM_P2
2023/03/30 00:02:29;;;;;;;13.23;8.40;;;;;;;4.71;40.55;100058.56;5113514;28;20055;-80
2023/03/30 00:05:01;;;;;;;14.32;8.00;;;;;;;4.45;41.22;100050.28;5095552;28;20482;-80
2023/03/30 00:07:28;;;;;;;15.27;8.63;;;;;;;4.49;40.45;100068.03;5095269;28;20036;-80
2023/03/30 00:09:53;;;;;;;15.68;8.00;;;;;;;4.41;40.44;100061.13;5093956;28;20401;-80
2023/03/30 00:12:19;;;;;;;17.08;10.27;;;;;;;4.56;40.88;100073.28;5113527;28;20032;-80
2023/03/30 00:14:45;;;;;;;19.20;10.13;;;;;;;4.66;39.99;100050.25;5112785;28;20031;-80
2023/03/30 00:17:11;;;;;;;17.17;10.38;;;;;;;4.73;40.36;100056.34;5094872;28;20031;-80
2023/03/30 00:19:37;;;;;;;18.40;9.70;;;;;;;4.78;40.73;100070.16;5094724;28;20114;-80
2023/03/30 00:22:08;;;;;;;18.88;10.32;;;;;;;4.75;41.14;100049.38;5094916;28;20102;-80
2023/03/30 00:24:34;;;;;;;24.13;11.18;;;;;;;4.75;40.72;100056.88;5113366;28;20029;-80
2023/03/30 00:27:00;;;;;;;19.80;10.07;;;;;;;4.64;41.59;100058.81;5095307;28;20027;-80
2023/03/30 00:29:26;;;;;;;19.05;10.20;;;;;;;4.61;40.74;100054.69;5102890;28;20497;-81
2023/03/30 00:31:51;;;;;;;20.17;10.38;;;;;;;4.50;42.01;100041.97;5112050;28;20031;-80
2023/03/30 00:34:17;;;;;;;25.30;10.48;;;;;;;4.44;42.25;100052.25;5094647;28;20046;-80
2023/03/30 00:36:45;;;;;;;16.48;9.43;;;;;;;4.55;41.66;100047.50;5113009;28;20086;-80
2023/03/30 00:39:11;;;;;;;16.80;10.13;;;;;;;4.29;42.83;100047.53;5094839;28;20464;-80
2023/03/30 00:41:37;;;;;;;19.00;10.30;;;;;;;4.47;42.45;100051.66;5094740;28;20054;-80
2023/03/30 00:44:27;;;;;;;29.08;14.55;;;;;;;4.54;42.93;100048.59;5113100;28;20486;-80
2023/03/30 00:46:53;;;;;;;22.08;13.15;;;;;;;4.30;42.63;100048.38;5099650;28;20028;-80
2023/03/30 00:49:20;;;;;;;44.30;14.93;;;;;;;4.18;42.98;100046.72;5094063;28;20126;-80
2023/03/30 00:51:49;;;;;;;53.97;27.23;;;;;;;4.30;43.16;100043.66;5094367;28;20494;-80
2023/03/30 00:54:19;;;;;;;89.72;41.15;;;;;;;4.40;42.96;100048.34;5112229;28;20038;-80
2023/03/30 00:56:45;;;;;;;85.38;39.03;;;;;;;4.40;42.84;100050.31;5111465;28;20505;-80
2023/03/30 00:59:11;;;;;;;76.10;36.42;;;;;;;4.34;42.89;100044.78;5094206;28;20031;-80
2023/03/30 01:01:39;;;;;;;68.18;31.90;;;;;;;4.13;43.69;100045.91;5099792;28;20031;-80
2023/03/30 01:04:07;;;;;;;32.78;15.15;;;;;;;4.13;42.45;100056.97;5111636;28;20406;-80
2023/03/30 01:06:38;;;;;;;27.52;15.07;;;;;;;4.12;42.95;100058.91;5093873;28;20061;-80
2023/03/30 01:09:05;;;;;;;20.75;10.80;;;;;;;4.19;42.46;100051.16;5093928;28;20112;-80
2023/03/30 01:11:31;;;;;;;21.92;11.82;;;;;;;4.19;43.24;100053.09;5093696;28;20027;-80
2023/03/30 01:14:04;;;;;;;30.02;12.65;;;;;;;4.26;43.00;100052.81;5092941;28;20080;-81
2023/03/30 01:16:35;;;;;;;21.95;14.07;;;;;;;4.27;43.18;100052.53;5093859;28;20039;-80
2023/03/30 01:19:38;;;;;;;26.77;14.60;;;;;;;4.11;43.38;100051.72;5108334;28;20115;-80
2023/03/30 01:22:17;;;;;;;39.45;19.92;;;;;;;4.14;43.02;100053.09;5110969;28;20106;-80
2023/03/30 01:25:19;;;;;;;83.32;41.03;;;;;;;4.00;43.61;100055.59;5110787;28;20032;-80
2023/03/30 01:27:53;;;;;;;80.75;40.20;;;;;;;3.67;46.18;100055.84;5112143;28;20055;-80
2023/03/30 01:30:31;;;;;;;61.05;32.42;;;;;;;3.60;45.17;100050.56;5094592;28;20032;-80
2023/03/30 01:33:27;;;;;;;59.58;34.05;;;;;;;3.28;47.06;100056.31;5092971;28;20026;-80
2023/03/30 01:36:02;;;;;;;81.32;39.83;;;;;;;3.41;46.72;100061.31;5093668;28;20030;-80
2023/03/30 01:38:58;;;;;;;60.50;32.15;;;;;;;3.41;45.70;100061.31;5105260;28;20023;-80
2023/03/30 01:41:34;;;;;;;51.85;26.33;;;;;;;3.21;46.55;100060.16;5102660;28;20512;-80
2023/03/30 01:44:14;;;;;;;42.83;22.58;;;;;;;3.07;46.67;100057.06;5093354;28;20107;-80
2023/03/30 01:46:46;;;;;;;46.97;23.65;;;;;;;2.95;46.87;100067.50;5093365;28;20040;-80
2023/03/30 01:49:33;;;;;;;49.85;23.50;;;;;;;2.90;48.46;100062.81;5092995;28;20034;-80
2023/03/30 01:52:17;;;;;;;49.88;22.85;;;;;;;2.95;46.80;100054.53;5093544;28;20138;-80
2023/03/30 01:55:09;;;;;;;46.50;22.92;;;;;;;2.81;48.87;100054.19;5106172;28;20058;-80
2023/03/30 01:57:47;;;;;;;38.13;17.35;;;;;;;2.79;48.37;100048.09;5110528;28;20016;-80
2023/03/30 02:00:16;;;;;;;30.92;15.65;;;;;;;2.74;48.40;100050.00;5110470;28;20051;-80
2023/03/30 02:03:05;;;;;;;26.33;14.73;;;;;;;2.50;48.47;100054.03;5105070;28;20016;-80
2023/03/30 02:05:32;;;;;;;27.13;13.32;;;;;;;2.55;48.27;100060.66;5082063;28;20540;-80
2023/03/30 02:08:03;;;;;;;22.20;12.80;;;;;;;2.65;49.28;100060.72;5093175;28;20027;-80
2023/03/30 02:10:33;;;;;;;18.25;9.70;;;;;;;2.49;48.40;100054.28;5094008;28;20088;-80
2023/03/30 02:13:00;;;;;;;17.23;9.95;;;;;;;2.57;48.95;100062.06;5111789;28;20024;-80
2023/03/30 02:15:35;;;;;;;15.52;8.82;;;;;;;2.49;48.24;100068.94;5111646;28;20028;-80
2023/03/30 02:18:01;;;;;;;23.83;11.35;;;;;;;2.50;47.86;100053.19;5097890;28;20051;-80
2023/03/30 02:20:28;;;;;;;33.15;15.02;;;;;;;2.67;47.86;100070.44;5093121;28;20027;-80
2023/03/30 02:22:54;;;;;;;125.75;58.13;;;;;;;2.78;49.12;100065.78;5093163;28;20035;-80
2023/03/30 02:25:20;;;;;;;164.98;81.30;;;;;;;2.84;50.90;100076.88;5092121;28;20425;-80
2023/03/30 02:27:46;;;;;;;152.15;72.85;;;;;;;2.84;51.13;100069.41;5092491;28;20066;-80
2023/03/30 02:30:12;;;;;;;128.45;63.75;;;;;;;2.51;51.26;100065.88;5092835;28;20492;-80
2023/03/30 02:32:48;;;;;;;105.85;55.75;;;;;;;2.53;53.04;100069.22;5092960;28;20062;-80
2023/03/30 02:35:33;;;;;;;113.57;55.55;;;;;;;2.57;52.60;100081.41;5092288;28;20024;-80
2023/03/30 02:38:02;;;;;;;93.55;46.95;;;;;;;2.68;51.66;100082.28;5092932;28;20502;-80
2023/03/30 02:40:57;;;;;;;82.38;41.28;;;;;;;2.79;50.80;100094.25;5092650;28;20052;-80
2023/03/30 02:43:35;;;;;;;71.72;35.22;;;;;;;2.72;50.66;100082.59;5107036;28;20557;-80
2023/03/30 02:46:26;;;;;;;64.53;32.70;;;;;;;2.54;50.90;100076.44;5109915;28;20023;-80
2023/03/30 02:49:00;;;;;;;51.65;27.10;;;;;;;2.78;50.44;100085.13;5108364;28;20509;-80
2023/03/30 02:51:47;;;;;;;49.63;25.05;;;;;;;2.72;50.95;100088.13;5098221;28;20047;-80
2023/03/30 02:54:24;;;;;;;48.58;23.77;;;;;;;2.53;50.48;100102.34;5093328;28;20486;-80
2023/03/30 02:57:10;;;;;;;44.40;23.35;;;;;;;2.56;50.96;100099.09;5096220;28;20055;-80
2023/03/30 02:59:56;;;;;;;71.93;30.70;;;;;;;2.48;50.39;100099.56;5096217;28;20080;-80
2023/03/30 03:02:30;;;;;;;65.38;30.92;;;;;;;2.43;50.33;100096.78;5096172;28;20019;-80
2023/03/30 03:04:57;;;;;;;58.25;25.73;;;;;;;2.55;49.90;100083.59;5112985;28;20107;-80
2023/03/30 03:07:24;;;;;;;65.38;24.45;;;;;;;2.75;49.19;100098.63;5095992;28;20073;-80
2023/03/30 03:09:49;;;;;;;61.55;24.58;;;;;;;2.59;49.89;100084.72;5096326;28;20058;-80
2023/03/30 03:12:15;;;;;;;49.90;22.00;;;;;;;2.56;49.46;100088.03;5093905;28;20047;-80
2023/03/30 03:14:41;;;;;;;60.05;24.42;;;;;;;2.55;49.89;100105.72;5103601;28;20024;-80
2023/03/30 03:17:07;;;;;;;55.50;22.63;;;;;;;2.44;49.80;100092.91;5095903;28;20016;-80
2023/03/30 03:19:32;;;;;;;49.72;23.45;;;;;;;2.59;49.71;100101.31;5095266;28;20035;-80
2023/03/30 03:21:58;;;;;;;56.47;23.10;;;;;;;2.51;50.35;100099.03;5111624;28;20039;-80
2023/03/30 03:24:23;;;;;;;41.83;19.33;;;;;;;2.58;50.62;100102.41;5113132;28;20077;-80
2023/03/30 03:26:49;;;;;;;35.97;17.23;;;;;;;2.47;50.47;100098.72;5106007;28;20505;-80
2023/03/30 03:29:15;;;;;;;39.40;17.77;;;;;;;2.41;49.56;100093.44;5114352;28;20347;-80
2023/03/30 03:31:40;;;;;;;34.88;17.20;;;;;;;2.36;49.96;100102.53;5095764;28;20024;-80
2023/03/30 03:34:06;;;;;;;39.15;17.33;;;;;;;2.54;49.45;100098.53;5095767;28;20020;-80
2023/03/30 03:36:32;;;;;;;37.38;16.67;;;;;;;2.60;49.71;100097.44;5095024;28;20031;-81
2023/03/30 03:38:57;;;;;;;35.40;18.17;;;;;;;2.42;50.19;100095.13;5113094;28;20081;-80
2023/03/30 03:41:23;;;;;;;37.67;18.60;;;;;;;2.55;50.37;100099.34;5113831;28;20044;-80
2023/03/30 03:43:48;;;;;;;30.45;15.73;;;;;;;2.41;50.78;100097.03;5099299;28;20035;-80
2023/03/30 03:46:14;;;;;;;34.22;18.38;;;;;;;2.36;51.14;100099.78;5075415;28;20030;-80
2023/03/30 03:48:40;;;;;;;44.85;21.30;;;;;;;1.89;51.71;100115.94;5084108;28;20024;-80
2023/03/30 03:51:06;;;;;;;47.85;22.88;;;;;;;1.94;52.17;100117.91;5095314;28;20023;-80
2023/03/30 03:53:32;;;;;;;49.85;23.63;;;;;;;1.88;52.30;100119.78;5094475;28;20026;-80
2023/03/30 03:55:58;;;;;;;59.10;27.98;;;;;;;1.93;51.93;100122.59;5112514;28;20031;-81
2023/03/30 03:58:24;;;;;;;91.15;31.33;;;;;;;1.73;52.14;100123.22;5112350;28;20023;-80
2023/03/30 04:00:50;;;;;;;84.03;34.15;;;;;;;1.61;52.86;100108.75;5112449;28;20151;-80
2023/03/30 04:03:16;;;;;;;88.75;34.67;;;;;;;1.91;51.96;100119.25;5094341;28;20023;-80
2023/03/30 04:05:42;;;;;;;77.28;36.28;;;;;;;1.88;53.20;100129.97;5094443;28;20023;-80
2023/03/30 04:08:11;;;;;;;67.55;34.65;;;;;;;1.42;53.90;100114.59;5094821;28;20081;-81
2023/03/30 04:10:37;;;;;;;72.85;35.35;;;;;;;1.44;54.52;100115.16;5096370;28;20031;-81
2023/03/30 04:13:04;;;;;;;55.65;25.90;;;;;;;1.25;55.80;100125.69;5098739;28;20035;-80
2023/03/30 04:15:29;;;;;;;41.70;21.10;;;;;;;1.22;55.50;100121.56;5094777;28;20126;-80
2023/03/30 04:17:58;;;;;;;36.45;16.65;;;;;;;1.30;55.02;100120.28;5095028;28;20043;-80
2023/03/30 04:20:28;;;;;;;30.95;15.57;;;;;;;1.21;54.75;100119.91;5094926;28;20039;-80
2023/03/30 04:22:54;;;;;;;;;;;;;;;1.53;54.53;100135.69;5095328;28;20024;-81
2023/03/30 04:25:24;;;;;;;49.35;28.42;;;;;;;1.32;55.67;100131.00;5093836;28;19926;-81
2023/03/30 04:27:50;;;;;;;;;;;;;;;0.92;55.67;100135.75;5113944;28;20083;-80
2023/03/30 04:30:16;;;;;;;74.00;36.05;;;;;;;1.08;55.79;100132.13;5111872;28;20378;-81
2023/03/30 04:32:43;;;;;;;103.47;44.50;;;;;;;1.12;54.91;100126.94;5102602;28;20024;-80
2023/03/30 04:35:10;;;;;;;115.70;49.25;;;;;;;1.18;54.64;100122.31;5086489;28;20055;-80
2023/03/30 04:37:37;;;;;;;160.55;65.32;;;;;;;1.29;55.05;100145.31;5094056;28;20027;-80
2023/03/30 04:40:06;;;;;;;196.88;78.45;;;;;;;1.57;54.05;100159.97;5094226;28;20050;-80
2023/03/30 04:42:36;;;;;;;170.27;69.18;;;;;;;1.63;53.96;100150.69;5093638;28;20553;-80
2023/03/30 04:45:07;;;;;;;190.30;74.60;;;;;;;1.86;53.58;100159.75;5112823;28;20050;-80
2023/03/30 04:47:33;;;;;;;199.95;78.97;;;;;;;2.15;54.01;100165.00;5100935;28;20461;-80
2023/03/30 04:50:00;;;;;;;243.95;89.22;;;;;;;2.24;53.98;100167.03;5097015;28;20414;-80
2023/03/30 04:52:26;;;;;;;219.40;91.03;;;;;;;2.43;52.91;100168.59;5092851;28;20081;-80
2023/03/30 04:54:52;;;;;;;237.07;95.10;;;;;;;2.55;53.26;100160.09;5112784;28;20023;-80
2023/03/30 04:57:17;;;;;;;221.00;90.28;;;;;;;2.67;52.50;100172.63;5093892;28;20015;-80
2023/03/30 04:59:43;;;;;;;209.13;86.45;;;;;;;3.03;51.88;100176.75;5095743;28;20486;-80
2023/03/30 05:02:10;;;;;;;204.65;87.75;;;;;;;3.39;50.96;100167.78;5095770;28;20047;-80
2023/03/30 05:04:36;;;;;;;223.88;91.13;;;;;;;3.66;49.94;100167.63;5092650;28;20098;-80
2023/03/30 05:07:03;;;;;;;181.00;78.38;;;;;;;3.69;51.09;100167.06;5093890;28;20119;-80
2023/03/30 05:09:28;;;;;;;149.55;70.63;;;;;;;3.99;49.22;100151.66;5112338;28;20034;-80
2023/03/30 05:11:54;;;;;;;148.50;67.05;;;;;;;4.35;48.58;100167.47;5093122;28;20040;-81
2023/03/30 05:14:19;;;;;;;99.53;49.33;;;;;;;4.50;48.21;100163.88;5104729;28;20485;-80
2023/03/30 05:16:44;;;;;;;97.90;39.63;;;;;;;4.64;47.62;100169.69;5109936;28;20034;-81
2023/03/30 05:19:10;;;;;;;210.68;100.68;;;;;;;4.77;47.09;100154.44;5091392;28;20423;-81
2023/03/30 05:21:36;;;;;;;132.00;59.67;;;;;;;4.96;48.25;100173.25;5091719;28;20088;-81
2023/03/30 05:24:01;;;;;;;81.68;41.80;;;;;;;5.02;48.11;100159.09;5091388;28;20035;-81
2023/03/30 05:26:27;;;;;;;81.82;34.42;;;;;;;5.13;48.01;100181.25;5089956;28;20035;-80
2023/03/30 05:28:53;;;;;;;101.55;47.70;;;;;;;5.44;46.63;100167.28;5090320;28;20039;-80
2023/03/30 05:31:19;;;;;;;97.00;46.55;;;;;;;5.71;46.04;100175.22;5108556;28;20504;-81
2023/03/30 05:33:45;;;;;;;106.38;57.17;;;;;;;5.96;46.07;100180.91;5089781;28;20405;-81
2023/03/30 05:36:11;;;;;;;110.38;61.20;;;;;;;6.14;44.87;100182.22;5090069;28;20034;-81
2023/03/30 05:38:36;;;;;;;88.40;45.85;;;;;;;6.28;44.08;100177.69;5089739;28;20027;-81
2023/03/30 05:41:05;;;;;;;96.32;47.25;;;;;;;6.34;45.50;100188.78;5086063;28;20047;-81
2023/03/30 05:43:32;;;;;;;103.57;52.72;;;;;;;6.30;44.93;100197.69;5089632;28;20513;-81
2023/03/30 05:45:58;;;;;;;119.75;52.85;;;;;;;6.39;44.60;100197.06;5088745;28;20122;-81
2023/03/30 05:48:23;;;;;;;84.50;38.58;;;;;;;6.12;46.73;100184.47;5087957;28;20131;-81
2023/03/30 05:50:49;;;;;;;75.15;35.42;;;;;;;5.96;47.06;100186.47;5085978;28;20067;-81
2023/03/30 05:53:15;;;;;;;70.53;34.85;;;;;;;5.82;47.22;100187.09;5102358;28;20050;-81
2023/03/30 05:55:45;;;;;;;98.30;46.10;;;;;;;5.67;49.63;100185.25;5103816;28;20489;-80
2023/03/30 05:58:11;;;;;;;;;;;;;;;5.69;48.85;100194.13;5091320;28;20020;-81
2023/03/30 06:00:36;;;;;;;59.90;31.85;;;;;;;5.66;49.45;100183.56;5088496;28;19911;-81
2023/03/30 06:03:03;;;;;;;80.72;38.63;;;;;;;5.70;50.11;100187.44;5079811;28;20483;-81
2023/03/30 06:05:29;;;;;;;65.00;32.08;;;;;;;5.56;51.68;100184.44;5072535;28;20027;-80
2023/03/30 06:07:55;;;;;;;56.90;29.77;;;;;;;5.57;52.98;100176.97;5106520;28;20026;-80
2023/03/30 06:10:21;;;;;;;56.92;28.08;;;;;;;5.70;52.57;100190.22;5100008;28;20111;-81
2023/03/30 06:12:46;;;;;;;51.47;27.30;;;;;;;5.80;52.70;100185.75;5109348;28;20020;-81
2023/03/30 06:15:11;;;;;;;52.35;26.25;;;;;;;5.69;53.11;100180.25;5089710;28;20508;-80
2023/03/30 06:17:37;;;;;;;63.28;30.25;;;;;;;5.69;53.29;100188.56;5091284;28;20035;-81
2023/03/30 06:20:08;;;;;;;52.05;29.10;;;;;;;5.80;54.46;100199.63;5089586;28;20516;-82
2023/03/30 06:22:34;;;;;;;58.72;28.27;;;;;;;5.86;54.37;100196.53;5086178;28;20537;-81
2023/03/30 06:25:00;;;;;;;39.53;21.63;;;;;;;5.88;53.05;100201.78;5091172;28;20024;-80
2023/03/30 06:27:26;;;;;;;43.13;22.83;;;;;;;5.97;52.55;100204.78;5090113;28;20028;-79
2023/03/30 06:29:52;;;;;;;49.53;24.63;;;;;;;6.18;51.81;100197.22;5091093;28;20106;-79
2023/03/30 06:32:17;;;;;;;42.70;22.77;;;;;;;6.25;53.11;100206.03;5093630;28;20410;-80
2023/03/30 06:34:43;;;;;;;47.38;22.58;;;;;;;6.42;52.28;100199.28;5092820;28;20042;-80
2023/03/30 06:37:08;;;;;;;42.25;22.38;;;;;;;6.55;52.15;100201.41;5092852;28;20584;-80
2023/03/30 06:39:36;;;;;;;48.40;24.00;;;;;;;6.77;51.64;100211.22;5093592;28;20031;-80
2023/03/30 06:42:05;;;;;;;51.95;24.80;;;;;;;6.93;51.33;100217.47;5068861;28;20503;-81
2023/03/30 06:44:31;;;;;;;46.10;22.73;;;;;;;7.13;51.09;100215.63;5084546;28;20039;-80
2023/03/30 06:46:57;;;;;;;52.53;27.55;;;;;;;7.35;50.69;100215.09;5068761;28;20056;-81
2023/03/30 06:49:22;;;;;;;43.47;25.65;;;;;;;7.48;49.67;100212.72;5067613;28;20087;-81
2023/03/30 06:51:48;;;;;;;38.80;20.70;;;;;;;7.62;47.77;100207.28;5067127;28;20033;-81
2023/03/30 06:54:13;;;;;;;46.53;23.67;;;;;;;7.74;47.14;100204.91;5076369;28;20024;-80
2023/03/30 06:56:39;;;;;;;35.53;18.42;;;;;;;7.62;46.04;100188.66;5069347;28;20028;-81
2023/03/30 06:59:04;;;;;;;37.53;19.13;;;;;;;7.92;46.90;100200.50;5070286;28;20028;-81
2023/03/30 07:01:30;;;;;;;25.08;13.60;;;;;;;8.05;46.49;100210.09;5069697;28;20040;-81
2023/03/30 07:03:55;;;;;;;19.45;8.93;;;;;;;8.21;45.91;100210.69;5083156;28;20485;-80
2023/03/30 07:06:21;;;;;;;12.07;7.32;;;;;;;8.35;45.64;100207.16;5071105;28;20097;-81
2023/03/30 07:08:47;;;;;;;8.45;5.70;;;;;;;8.55;45.32;100209.63;5070508;28;20032;-81
2023/03/30 07:11:13;;;;;;;9.73;4.72;;;;;;;8.59;44.00;100200.69;5087108;28;20439;-81
2023/03/30 07:13:39;;;;;;;11.43;5.15;;;;;;;8.71;44.35;100198.25;5070208;28;20036;-80
2023/03/30 07:16:05;;;;;;;15.85;6.88;;;;;;;8.87;43.98;100196.03;5085677;28;20452;-81
2023/03/30 07:18:30;;;;;;;10.23;5.82;;;;;;;9.16;44.32;100197.72;5070450;28;20476;-81
2023/03/30 07:20:59;;;;;;;6.05;4.40;;;;;;;9.18;43.63;100194.66;5071413;28;20162;-80
2023/03/30 07:23:25;;;;;;;10.98;5.45;;;;;;;9.54;43.58;100193.94;5070156;28;20105;-80
2023/03/30 07:25:51;;;;;;;9.90;4.75;;;;;;;9.71;42.67;100190.50;5069715;28;20483;-81
2023/03/30 07:28:17;;;;;;;5.72;4.05;;;;;;;9.93;42.88;100186.97;5069801;28;20037;-80
2023/03/30 07:30:43;;;;;;;153.07;116.20;;;;;;;9.88;42.41;100187.06;5069877;28;20050;-81
2023/03/30 07:33:09;;;;;;;18.52;7.72;;;;;;;10.21;41.35;100197.28;5070374;28;20028;-81
2023/03/30 07:35:35;;;;;;;10.75;4.43;;;;;;;9.85;41.99;100165.34;5083937;28;20441;-84
2023/03/30 07:38:01;;;;;;;8.73;3.80;;;;;;;9.85;42.13;100195.28;5070286;28;20028;-82
2023/03/30 07:40:27;;;;;;;10.85;6.72;;;;;;;10.06;41.69;100198.44;5069369;28;20127;-83
2023/03/30 07:42:52;;;;;;;9.23;5.38;;;;;;;10.04;42.01;100183.97;5069651;28;20547;-82
2023/03/30 07:45:18;;;;;;;10.13;5.55;;;;;;;10.33;41.88;100208.72;5057604;28;20029;-80
2023/03/30 07:47:43;;;;;;;9.25;4.40;;;;;;;10.61;40.65;100199.41;5069867;28;20543;-82
2023/03/30 07:50:09;;;;;;;11.70;4.88;;;;;;;10.62;41.85;100201.91;5070031;28;20036;-81
2023/03/30 07:52:35;;;;;;;7.53;4.72;;;;;;;10.64;42.09;100187.63;5071188;28;20028;-82
2023/03/30 07:55:01;;;;;;;5.00;3.92;;;;;;;10.73;40.93;100202.47;5068365;28;20576;-81
2023/03/30 07:57:26;;;;;;;7.00;4.20;;;;;;;10.61;41.47;100205.84;5069386;28;20040;-81
2023/03/30 07:59:52;;;;;;;10.18;4.82;;;;;;;10.99;41.28;100203.81;5069553;28;20047;-81
2023/03/30 08:02:18;;;;;;;6.70;4.60;;;;;;;10.91;41.06;100199.81;5068878;28;20071;-83
2023/03/30 08:04:43;;;;;;;28.75;5.60;;;;;;;10.95;41.65;100182.06;5066162;28;20033;-81
2023/03/30 08:07:10;;;;;;;9.80;4.90;;;;;;;11.36;42.04;100199.72;5074982;28;20023;-82
2023/03/30 08:09:36;;;;;;;6.38;3.95;;;;;;;11.08;41.66;100173.88;5079984;28;20411;-82
2023/03/30 08:12:05;;;;;;;7.10;3.30;;;;;;;11.35;41.41;100205.63;5068200;28;20044;-82
2023/03/30 08:14:31;;;;;;;8.10;3.67;;;;;;;11.35;41.55;100195.28;5067317;28;20028;-82
2023/03/30 08:16:57;;;;;;;6.00;4.00;;;;;;;11.20;40.60;100187.28;5070169;28;20043;-81
2023/03/30 08:19:23;;;;;;;8.82;4.60;;;;;;;11.26;41.92;100199.16;5070762;28;20032;-82
2023/03/30 08:21:49;;;;;;;5.38;3.80;;;;;;;11.36;41.25;100191.31;5068199;28;20013;-82
2023/03/30 08:24:15;;;;;;;4.93;3.60;;;;;;;11.27;42.04;100184.84;5071237;28;20483;-82
2023/03/30 08:26:40;;;;;;;5.60;2.92;;;;;;;11.69;40.73;100175.28;5072297;28;20021;-81
2023/03/30 08:29:07;;;;;;;6.72;3.90;;;;;;;11.60;39.72;100170.47;5069824;28;20017;-82
2023/03/30 08:31:33;;;;;;;4.20;3.78;;;;;;;11.96;39.09;100157.38;5070665;28;20399;-81
2023/03/30 08:33:59;;;;;;;5.07;3.00;;;;;;;11.70;38.50;100168.50;5071305;28;20488;-80
2023/03/30 08:36:25;;;;;;;6.63;3.65;;;;;;;11.61;39.27;100138.50;5070442;28;20032;-80
2023/03/30 08:38:53;;;;;;;4.00;3.60;;;;;;;12.05;39.41;100165.81;5086924;28;20377;-80
2023/03/30 08:41:28;;;;;;;5.97;3.33;;;;;;;12.26;38.83;100151.16;5071700;28;20028;-82
2023/03/30 08:44:00;;;;;;;6.07;3.72;;;;;;;12.35;38.91;100149.97;5071494;28;20039;-81
2023/03/30 08:46:27;;;;;;;8.00;3.53;;;;;;;12.41;38.24;100156.25;5071042;28;20016;-82
2023/03/30 08:48:58;;;;;;;10.85;4.10;;;;;;;12.27;38.76;100150.00;5072818;28;20219;-81
2023/03/30 08:51:27;;;;;;;4.22;3.25;;;;;;;12.33;37.78;100146.69;5070449;28;20119;-81
2023/03/30 08:54:20;;;;;;;5.20;3.47;;;;;;;12.82;38.24;100142.81;5089564;28;20023;-82
2023/03/30 08:57:10;;;;;;;6.75;3.42;;;;;;;13.07;36.71;100137.47;5084816;28;20063;-81
2023/03/30 09:00:10;;;;;;;5.60;3.53;;;;;;;13.22;37.35;100130.47;5052167;28;20029;-81
2023/03/30 09:02:41;;;;;;;;;;;;;;;12.84;38.18;100136.88;5069822;28;20518;-81
2023/03/30 09:05:26;;;;;;;8.30;3.45;;;;;;;12.76;37.97;100125.34;5067105;28;19915;-81
2023/03/30 09:08:21;;;;;;;5.28;3.00;;;;;;;12.88;37.84;100112.59;5079967;28;20032;-81
2023/03/30 09:10:57;;;;;;;5.38;3.33;;;;;;;13.03;38.07;100109.25;5064950;28;20097;-81
2023/03/30 09:13:27;;;;;;;5.65;3.17;;;;;;;13.39;37.44;100103.44;5083959;28;20027;-83
2023/03/30 09:16:08;;;;;;;7.93;3.53;;;;;;;13.42;37.94;100108.41;5076503;28;20025;-82
2023/03/30 09:18:36;;;;;;;9.38;3.67;;;;;;;13.10;38.27;100096.66;5070571;28;20784;-82
2023/03/30 09:21:04;;;;;;;6.55;2.97;;;;;;;13.14;38.80;100098.47;5081167;28;20052;-82
2023/03/30 09:23:31;;;;;;;8.93;3.50;;;;;;;13.16;38.42;100095.31;5068152;28;20029;-81
2023/03/30 09:26:22;;;;;;;9.13;3.50;;;;;;;13.05;38.01;100084.47;5068505;28;20098;-81
2023/03/30 09:29:02;;;;;;;4.03;2.90;;;;;;;13.38;37.57;100088.59;5074990;28;20115;-81
2023/03/30 09:31:54;;;;;;;4.40;3.05;;;;;;;13.87;36.75;100085.31;5054527;28;20029;-81
2023/03/30 09:34:44;;;;;;;5.00;3.35;;;;;;;14.25;36.59;100091.16;5061311;28;20422;-81
2023/03/30 09:37:12;;;;;;;4.50;3.50;;;;;;;14.29;36.15;100089.28;5065198;28;20043;-83
2023/03/30 09:39:40;;;;;;;3.00;2.60;;;;;;;14.09;35.20;100079.72;5068578;28;20032;-81
2023/03/30 09:42:27;;;;;;;11.63;3.20;;;;;;;14.25;35.66;100077.91;5090411;28;20087;-81
2023/03/30 09:45:12;;;;;;;4.30;3.30;;;;;;;14.54;35.82;100069.66;5089977;28;20034;-81
2023/03/30 09:47:41;;;;;;;6.43;3.20;;;;;;;14.28;36.22;100067.94;5090709;28;20088;-81
2023/03/30 09:50:27;;;;;;;5.38;3.53;;;;;;;14.32;36.18;100060.44;5085322;28;20032;-83
2023/03/30 09:53:12;;;;;;;9.75;3.85;;;;;;;14.55;35.54;100055.25;5074052;28;20035;-81
2023/03/30 09:55:38;;;;;;;4.30;2.30;;;;;;;14.58;32.73;100059.34;5092996;28;20036;-81
2023/03/30 09:58:11;;;;;;;5.38;3.38;;;;;;;14.60;32.80;100048.59;5072287;28;20028;-81
2023/03/30 10:00:38;;;;;;;7.80;3.20;;;;;;;14.03;33.56;100043.34;5074877;28;20114;-81
2023/03/30 10:03:17;;;;;;;5.57;3.88;;;;;;;14.28;34.47;100042.63;5091262;28;20098;-81
2023/03/30 10:05:42;;;;;;;3.75;2.67;;;;;;;14.24;32.79;100036.88;5094707;28;20516;-81
2023/03/30 10:08:20;;;;;;;3.55;1.70;;;;;;;14.42;31.21;100039.47;5093581;28;20028;-82
2023/03/30 10:10:52;;;;;;;2.50;2.30;;;;;;;14.49;30.00;100034.13;5086571;28;20028;-82
2023/03/30 10:13:18;;;;;;;2.85;1.90;;;;;;;14.71;28.46;100027.22;5092357;27;20039;-81
2023/03/30 10:15:48;;;;;;;8.10;2.45;;;;;;;14.41;30.94;100030.22;5106371;28;20036;-81
2023/03/30 10:18:17;;;;;;;2.33;1.98;;;;;;;14.53;30.67;100029.44;5096228;28;20103;-82
2023/03/30 10:20:50;;;;;;;2.45;2.17;;;;;;;14.65;30.23;100022.19;5111363;27;20043;-81
2023/03/30 10:23:18;;;;;;;5.78;2.05;;;;;;;14.38;30.27;100021.66;5106824;28;20023;-82
2023/03/30 10:25:48;;;;;;;4.13;1.60;;;;;;;14.53;29.79;100032.25;5095173;28;20540;-81
2023/03/30 10:28:29;;;;;;;3.70;1.90;;;;;;;14.37;29.11;100022.84;5094642;28;20027;-81
2023/03/30 10:31:13;;;;;;;4.95;1.20;;;;;;;14.86;28.15;100022.16;5091961;28;20060;-81
2023/03/30 10:33:42;;;;;;;5.00;1.42;;;;;;;14.82;27.94;100016.38;5094165;28;20516;-81
2023/03/30 10:36:08;;;;;;;4.32;1.35;;;;;;;14.83;27.69;100005.94;5094475;28;20130;-81
2023/03/30 10:38:35;;;;;;;1.38;1.27;;;;;;;14.70;27.20;100005.88;5088689;28;20024;-82
2023/03/30 10:41:13;;;;;;;1.90;1.70;;;;;;;14.93;28.06;100007.47;5085994;28;20126;-80
2023/03/30 10:43:40;;;;;;;4.13;1.80;;;;;;;15.33;28.45;99997.47;5089059;27;20169;-81
2023/03/30 10:46:14;;;;;;;1.30;1.20;;;;;;;15.37;28.12;99995.59;5108244;27;20035;-81
2023/03/30 10:49:00;;;;;;;3.67;1.70;;;;;;;15.13;28.62;99994.44;5085147;28;20027;-82
2023/03/30 10:51:42;;;;;;;4.00;2.05;;;;;;;15.02;29.79;99986.47;5095257;28;20039;-81
2023/03/30 10:54:22;;;;;;;5.57;2.13;;;;;;;15.07;29.87;99976.13;5114132;28;20035;-81
2023/03/30 10:56:55;;;;;;;2.97;1.63;;;;;;;15.40;27.41;99966.69;5096206;28;20032;-81
2023/03/30 10:59:27;;;;;;;1.45;1.27;;;;;;;15.47;25.33;99963.25;5094935;28;20494;-81
2023/03/30 11:01:58;;;;;;;5.13;1.65;;;;;;;15.52;26.38;99957.38;5096097;28;20081;-82
2023/03/30 11:04:31;;;;;;;1.20;1.10;;;;;;;15.50;24.25;99949.28;5090084;28;20031;-81
2023/03/30 11:06:59;;;;;;;2.13;1.42;;;;;;;16.06;25.11;99938.38;5092739;28;20034;-81
2023/03/30 11:09:38;;;;;;;1.65;1.52;;;;;;;16.02;27.46;99929.00;5109996;28;20023;-81
2023/03/30 11:12:19;;;;;;;2.22;1.50;;;;;;;16.21;26.73;99929.09;5089556;28;20020;-81
2023/03/30 11:15:00;;;;;;;2.45;1.98;;;;;;;16.24;27.76;99927.56;5090069;28;20490;-81
2023/03/30 11:17:32;;;;;;;6.72;1.70;;;;;;;15.64;27.78;99919.84;5083438;28;20023;-81
2023/03/30 11:20:17;;;;;;;5.00;2.03;;;;;;;16.08;27.19;99928.38;5088853;28;20032;-81
2023/03/30 11:22:48;;;;;;;1.35;1.25;;;;;;;15.92;24.99;99930.34;5093336;28;20023;-80
2023/03/30 11:25:24;;;;;;;1.35;1.23;;;;;;;15.92;26.93;99921.88;5092078;28;20087;-81
2023/03/30 11:27:58;;;;;;;4.35;1.98;;;;;;;16.28;27.28;99926.50;5082403;28;20126;-80
2023/03/30 11:30:30;;;;;;;2.15;1.90;;;;;;;16.28;29.36;99920.84;5104950;28;20031;-82
2023/03/30 11:32:58;;;;;;;2.65;1.95;;;;;;;16.21;28.48;99915.00;5086100;28;20073;-82
2023/03/30 11:35:44;;;;;;;2.53;1.85;;;;;;;16.80;28.59;99906.78;5091386;28;20464;-82
2023/03/30 11:38:24;;;;;;;7.32;2.47;;;;;;;17.28;27.43;99896.59;5083774;28;20084;-81